Time;durP1;ratioP1;P1;durP2;ratioP2;P2;SDS_P1;SDS_P2;PMS_P1;PMS_P2;Temp;Humidity;BMP_temperature;BMP_pressure;BME280_temperature;BME280_humidity;BME280_pressure;Samples;Min_cycle;Max_cycle;Signal;HPM_P1;HPM_P2
2022/06/15 00:01:15;;;;;;;29.50;4.05;;;41.10;16.50;;;;;;4992864;28;20428;-61
2022/06/15 00:03:42;;;;;;;53.58;5.28;;;41.10;16.50;;;;;;5020519;28;20032;-61
2022/06/15 00:06:11;;;;;;;33.60;4.78;;;41.10;16.50;;;;;;4991355;28;20407;-61
2022/06/15 00:08:39;;;;;;;32.40;4.65;;;40.90;16.80;;;;;;5007732;28;20054;-61
2022/06/15 00:11:17;;;;;;;41.40;4.80;;;40.80;16.50;;;;;;5006758;28;20037;-61
2022/06/15 00:13:45;;;;;;;40.95;5.60;;;40.50;16.40;;;;;;5007535;28;20046;-62
2022/06/15 00:16:12;;;;;;;29.33;3.97;;;40.30;16.70;;;;;;5004710;28;20070;-61
2022/06/15 00:18:38;;;;;;;28.10;4.25;;;40.00;16.40;;;;;;4994723;28;20055;-61
2022/06/15 00:21:06;;;;;;;37.85;4.45;;;39.70;18.00;;;;;;4996026;28;20084;-60
2022/06/15 00:23:34;;;;;;;34.33;4.13;;;39.80;17.00;;;;;;5016957;28;20099;-62
2022/06/15 00:26:01;;;;;;;43.63;5.32;;;40.00;17.00;;;;;;5017840;28;20068;-64
2022/06/15 00:28:28;;;;;;;91.85;7.53;;;40.10;17.40;;;;;;5006529;28;20107;-62
2022/06/15 00:30:54;;;;;;;48.47;5.30;;;40.10;16.80;;;;;;4993492;28;20075;-61
2022/06/15 00:33:22;;;;;;;35.88;4.93;;;40.10;17.40;;;;;;5005950;28;20066;-61
2022/06/15 00:35:58;;;;;;;30.35;4.72;;;40.10;17.40;;;;;;5015581;28;20518;-62
2022/06/15 00:38:49;;;;;;;38.38;5.25;;;40.00;17.70;;;;;;4989827;28;20035;-62
2022/06/15 00:41:19;;;;;;;43.03;4.18;;;40.00;17.90;;;;;;4999689;28;20059;-63
2022/06/15 00:43:58;;;;;;;23.98;3.85;;;40.10;17.60;;;;;;5005177;28;20045;-62
2022/06/15 00:46:31;;;;;;;43.47;4.57;;;39.90;17.40;;;;;;5004946;28;20046;-61
2022/06/15 00:49:20;;;;;;;49.35;4.68;;;39.90;17.20;;;;;;5004738;28;20437;-61
2022/06/15 00:51:50;;;;;;;44.03;4.60;;;39.90;17.80;;;;;;4998047;28;20044;-66
2022/06/15 00:54:17;;;;;;;31.10;3.97;;;39.70;19.60;;;;;;4991384;28;20728;-61
2022/06/15 00:56:44;;;;;;;29.15;3.65;;;39.50;16.90;;;;;;4990387;28;20059;-61
2022/06/15 00:59:39;;;;;;;29.75;3.53;;;39.40;17.20;;;;;;4990885;28;20041;-62
2022/06/15 01:02:06;;;;;;;49.20;6.28;;;39.30;16.20;;;;;;4984726;28;20062;-65
2022/06/15 01:04:43;;;;;;;23.88;3.58;;;39.20;17.90;;;;;;5005715;28;20062;-63
2022/06/15 01:07:28;;;;;;;33.85;4.22;;;39.10;21.80;;;;;;5005381;28;20114;-66
2022/06/15 01:10:21;;;;;;;27.98;3.33;;;38.90;19.70;;;;;;5019444;28;20172;-64
2022/06/15 01:12:57;;;;;;;36.88;4.55;;;38.80;21.30;;;;;;4988778;28;20621;-66
2022/06/15 01:15:29;;;;;;;42.75;4.88;;;38.60;23.80;;;;;;5016817;28;20055;-64
2022/06/15 01:18:11;;;;;;;37.83;4.53;;;38.40;21.40;;;;;;4989114;28;20165;-62
2022/06/15 01:20:48;;;;;;;23.95;4.07;;;38.40;25.00;;;;;;5017823;28;20487;-60
2022/06/15 01:23:29;;;;;;;42.95;4.93;;;38.30;25.40;;;;;;5005124;28;20128;-60
2022/06/15 01:26:28;;;;;;;43.15;4.47;;;38.10;22.20;;;;;;5017047;28;20102;-60
2022/06/15 01:29:07;;;;;;;44.63;4.28;;;38.00;20.90;;;;;;4971317;28;20127;-61
2022/06/15 01:31:51;;;;;;;29.27;3.95;;;37.90;21.20;;;;;;4989822;28;20071;-60
2022/06/15 01:34:32;;;;;;;35.90;4.15;;;37.90;19.40;;;;;;4990729;28;20510;-62
2022/06/15 01:37:04;;;;;;;26.92;4.05;;;37.70;19.10;;;;;;5006350;28;20084;-63
2022/06/15 01:39:44;;;;;;;31.27;4.68;;;37.80;21.50;;;;;;5004577;28;20053;-63
2022/06/15 01:42:25;;;;;;;25.00;3.80;;;37.70;20.40;;;;;;5003750;28;20105;-64
2022/06/15 01:44:58;;;;;;;40.85;4.75;;;37.60;19.70;;;;;;5003262;28;20733;-61
2022/06/15 01:47:27;;;;;;;43.85;4.95;;;37.60;19.60;;;;;;5004279;28;20052;-62
2022/06/15 01:50:17;;;;;;;29.50;3.78;;;37.40;20.60;;;;;;5013543;28;20583;-63
2022/06/15 01:52:52;;;;;;;31.92;4.60;;;37.40;21.30;;;;;;4989584;28;20077;-65
2022/06/15 01:55:30;;;;;;;42.47;4.43;;;37.30;21.80;;;;;;5003220;28;20057;-62
2022/06/15 01:58:01;;;;;;;31.77;4.38;;;37.10;19.90;;;;;;4993906;28;20531;-62
2022/06/15 02:00:27;;;;;;;29.90;4.78;;;37.10;22.60;;;;;;5014362;28;20407;-63
2022/06/15 02:03:17;;;;;;;36.55;4.10;;;36.90;23.10;;;;;;5004909;28;20081;-63
2022/06/15 02:06:05;;;;;;;51.25;5.28;;;36.90;23.20;;;;;;5015117;28;20057;-63
2022/06/15 02:08:45;;;;;;;26.15;3.83;;;36.70;22.20;;;;;;4990408;28;20090;-62
2022/06/15 02:11:23;;;;;;;24.00;3.75;;;36.60;22.50;;;;;;5018470;28;20085;-64
2022/06/15 02:14:19;;;;;;;36.05;3.58;;;36.60;19.00;;;;;;5004082;28;20051;-65
2022/06/15 02:17:08;;;;;;;35.17;4.60;;;36.50;19.00;;;;;;5007368;28;20771;-63
2022/06/15 02:19:48;;;;;;;34.97;3.78;;;36.50;21.30;;;;;;4989125;28;20935;-63
2022/06/15 02:22:19;;;;;;;31.92;4.47;;;36.40;19.60;;;;;;5017531;28;20092;-63
2022/06/15 02:24:51;;;;;;;37.20;5.38;;;36.30;21.90;;;;;;5004505;28;20063;-63
2022/06/15 02:27:19;;;;;;;40.33;4.80;;;36.20;22.80;;;;;;4988482;28;20064;-63
2022/06/15 02:29:48;;;;;;;43.97;4.97;;;36.10;21.70;;;;;;4988934;28;20077;-62
2022/06/15 02:32:17;;;;;;;28.83;4.95;;;36.00;21.60;;;;;;5003536;28;20072;-62
2022/06/15 02:34:44;;;;;;;44.83;5.10;;;35.90;21.60;;;;;;4989184;28;20429;-62
2022/06/15 02:37:12;;;;;;;33.60;4.47;;;35.80;21.80;;;;;;4989380;28;20170;-64
2022/06/15 02:39:39;;;;;;;49.35;5.35;;;35.70;19.20;;;;;;5004843;28;20586;-63
2022/06/15 02:42:30;;;;;;;38.97;4.35;;;35.70;20.80;;;;;;4989850;28;20753;-65
2022/06/15 02:45:03;;;;;;;37.45;4.85;;;35.70;20.60;;;;;;4990265;28;20119;-64
2022/06/15 02:47:33;;;;;;;39.95;5.00;;;35.50;22.90;;;;;;5003813;28;20124;-64
2022/06/15 02:50:01;;;;;;;30.27;5.63;;;35.40;24.60;;;;;;5003295;28;20069;-64
2022/06/15 02:52:40;;;;;;;48.70;6.25;;;35.20;23.30;;;;;;5010154;28;20096;-64
2022/06/15 02:55:09;;;;;;;36.67;5.32;;;35.10;21.20;;;;;;5002987;28;20087;-64
2022/06/15 02:58:00;;;;;;;35.70;5.30;;;35.00;23.40;;;;;;5004127;28;20071;-63
2022/06/15 03:00:27;;;;;;;28.02;5.30;;;35.00;22.20;;;;;;4991081;28;20073;-61
2022/06/15 03:02:53;;;;;;;39.65;5.97;;;34.90;22.90;;;;;;5005377;28;20080;-62
2022/06/15 03:05:20;;;;;;;31.98;5.70;;;34.80;22.20;;;;;;5004457;28;20069;-63
2022/06/15 03:07:46;;;;;;;37.92;5.72;;;34.70;23.60;;;;;;5018109;28;20424;-63
2022/06/15 03:10:12;;;;;;;35.17;6.43;;;34.60;23.60;;;;;;5011840;28;20131;-62
2022/06/15 03:12:39;;;;;;;42.70;7.75;;;34.60;22.70;;;;;;4989114;28;20096;-63
2022/06/15 03:15:06;;;;;;;34.20;7.07;;;34.50;22.50;;;;;;5004079;28;20516;-61
2022/06/15 03:17:33;;;;;;;34.53;6.30;;;34.50;23.70;;;;;;4990356;28;20081;-61
2022/06/15 03:19:59;;;;;;;40.35;7.20;;;34.40;22.80;;;;;;5004004;28;20090;-62
2022/06/15 03:22:26;;;;;;;29.08;6.53;;;34.40;23.70;;;;;;5015710;28;20438;-62
2022/06/15 03:24:52;;;;;;;43.17;7.13;;;34.30;23.40;;;;;;5016645;28;20075;-61
2022/06/15 03:27:19;;;;;;;37.78;6.72;;;34.20;23.40;;;;;;4987412;28;20078;-63
2022/06/15 03:29:47;;;;;;;48.25;7.30;;;34.10;23.60;;;;;;5003451;28;20522;-61
2022/06/15 03:32:15;;;;;;;34.25;8.07;;;34.10;22.80;;;;;;5007056;28;20648;-63
2022/06/15 03:34:42;;;;;;;47.08;6.78;;;34.00;22.90;;;;;;5007871;28;20095;-63
2022/06/15 03:37:09;;;;;;;39.22;6.65;;;34.00;23.20;;;;;;5016993;28;20109;-61
2022/06/15 03:39:36;;;;;;;37.13;6.93;;;33.90;22.80;;;;;;5007913;28;20127;-62
2022/06/15 03:42:16;;;;;;;38.65;6.88;;;33.90;22.80;;;;;;5007488;28;20533;-62
2022/06/15 03:44:44;;;;;;;44.58;7.95;;;33.80;22.80;;;;;;5021079;28;20099;-63
2022/06/15 03:47:17;;;;;;;46.45;8.07;;;33.80;22.90;;;;;;4992375;28;20075;-62
2022/06/15 03:49:44;;;;;;;35.03;6.97;;;33.70;23.70;;;;;;5006973;28;20171;-62
2022/06/15 03:52:12;;;;;;;39.45;7.05;;;33.70;22.90;;;;;;5010618;28;20104;-62
2022/06/15 03:54:39;;;;;;;61.00;7.68;;;33.60;22.70;;;;;;5019053;28;20067;-62
2022/06/15 03:57:06;;;;;;;43.92;6.90;;;33.60;22.30;;;;;;5006004;28;20071;-64
2022/06/15 03:59:32;;;;;;;49.47;7.55;;;33.50;23.40;;;;;;5006723;28;20102;-62
2022/06/15 04:01:59;;;;;;;38.67;7.03;;;33.40;23.30;;;;;;5016460;28;20077;-62
2022/06/15 04:04:25;;;;;;;46.58;7.03;;;33.30;24.10;;;;;;4991839;28;20077;-62
2022/06/15 04:06:52;;;;;;;45.55;7.13;;;33.20;23.40;;;;;;4990521;28;20099;-62
2022/06/15 04:09:22;;;;;;;37.55;6.60;;;33.20;24.60;;;;;;4992739;28;20076;-62
2022/06/15 04:11:59;;;;;;;50.85;7.60;;;33.10;25.10;;;;;;4991571;28;20088;-64
2022/06/15 04:14:32;;;;;;;44.60;7.97;;;33.00;26.50;;;;;;4991461;28;20071;-63
2022/06/15 04:16:59;;;;;;;38.83;7.80;;;32.90;25.30;;;;;;5018329;28;20075;-63
2022/06/15 04:19:31;;;;;;;52.33;9.15;;;32.80;26.00;;;;;;4992288;28;20439;-63
2022/06/15 04:21:59;;;;;;;55.92;7.82;;;32.60;25.50;;;;;;5006065;28;20097;-63
2022/06/15 04:24:29;;;;;;;40.38;7.65;;;32.60;25.70;;;;;;5006593;28;20161;-63
2022/06/15 04:26:57;;;;;;;46.83;8.30;;;32.50;25.60;;;;;;5005705;28;20088;-64
2022/06/15 04:29:25;;;;;;;56.08;8.93;;;32.40;25.60;;;;;;5006465;28;20084;-63
2022/06/15 04:31:51;;;;;;;56.47;8.45;;;32.40;26.30;;;;;;5017957;28;20094;-62
2022/06/15 04:34:18;;;;;;;61.72;9.00;;;32.30;25.80;;;;;;5006280;28;20077;-62
2022/06/15 04:36:45;;;;;;;52.05;8.77;;;32.20;26.30;;;;;;4991117;28;20202;-61
2022/06/15 04:39:13;;;;;;;45.67;7.93;;;32.10;26.10;;;;;;5006447;28;20092;-62
2022/06/15 04:41:41;;;;;;;57.33;8.55;;;32.10;26.80;;;;;;5006004;28;20077;-63
2022/06/15 04:44:11;;;;;;;51.53;7.55;;;32.10;26.40;;;;;;5014725;28;20085;-62
2022/06/15 04:46:37;;;;;;;59.95;8.52;;;32.00;27.60;;;;;;4991126;28;20562;-63
2022/06/15 04:49:05;;;;;;;45.55;7.70;;;31.90;27.60;;;;;;4991080;28;20523;-63
2022/06/15 04:51:40;;;;;;;62.33;8.50;;;31.80;28.00;;;;;;4992552;28;20098;-63
2022/06/15 04:54:09;;;;;;;56.40;8.23;;;31.80;28.60;;;;;;4988450;28;20071;-63
2022/06/15 04:56:37;;;;;;;54.03;7.68;;;31.70;28.30;;;;;;5006411;28;20075;-63
2022/06/15 04:59:04;;;;;;;46.47;8.20;;;31.70;27.70;;;;;;5005641;28;20085;-63
2022/06/15 05:01:31;;;;;;;65.07;13.68;;;31.60;28.30;;;;;;5005554;28;20108;-63
2022/06/15 05:03:57;;;;;;;76.90;16.90;;;31.50;28.10;;;;;;5001782;28;20082;-63
2022/06/15 05:06:39;;;;;;;67.72;14.85;;;31.40;27.00;;;;;;5016589;28;20506;-63
2022/06/15 05:09:07;;;;;;;75.57;11.65;;;31.40;26.20;;;;;;4991351;28;20076;-65
2022/06/15 05:11:33;;;;;;;58.53;11.27;;;31.40;25.80;;;;;;5020012;28;20560;-63
2022/06/15 05:14:00;;;;;;;85.90;11.73;;;31.40;26.90;;;;;;4989405;28;20078;-62
2022/06/15 05:16:27;;;;;;;66.72;11.80;;;31.40;26.00;;;;;;4992173;28;20606;-63
2022/06/15 05:18:54;;;;;;;71.18;10.73;;;31.40;26.10;;;;;;5002978;28;20073;-63
2022/06/15 05:21:21;;;;;;;71.68;9.75;;;31.40;26.60;;;;;;4990563;28;20093;-63
2022/06/15 05:23:47;;;;;;;67.15;10.77;;;31.40;26.10;;;;;;5005709;28;20104;-64
2022/06/15 05:26:14;;;;;;;60.72;10.10;;;31.40;25.90;;;;;;4989105;28;20082;-64
2022/06/15 05:28:44;;;;;;;69.85;10.50;;;31.40;26.50;;;;;;5004679;28;20073;-64
2022/06/15 05:31:18;;;;;;;77.82;11.93;;;31.40;26.50;;;;;;5000931;28;20121;-63
2022/06/15 05:33:45;;;;;;;91.40;12.43;;;31.30;26.70;;;;;;4990997;28;20077;-65
2022/06/15 05:36:14;;;;;;;80.88;11.95;;;31.30;27.20;;;;;;5001363;28;20168;-63
2022/06/15 05:38:41;;;;;;;81.45;11.07;;;31.20;26.30;;;;;;4990934;28;20094;-63
2022/06/15 05:41:08;;;;;;;86.75;11.13;;;31.20;27.20;;;;;;5017489;28;20074;-64
2022/06/15 05:43:43;;;;;;;74.72;10.43;;;31.20;27.40;;;;;;4990361;28;20101;-63
2022/06/15 05:46:14;;;;;;;69.93;10.30;;;31.10;27.20;;;;;;5017156;28;20100;-65
2022/06/15 05:48:40;;;;;;;54.53;8.73;;;31.10;27.70;;;;;;5013457;28;20190;-63
2022/06/15 05:51:07;;;;;;;61.22;10.88;;;31.10;27.50;;;;;;5005386;28;20085;-63
2022/06/15 05:53:33;;;;;;;67.78;12.38;;;31.00;26.90;;;;;;5011094;28;20098;-65
2022/06/15 05:55:59;;;;;;;81.88;14.23;;;31.00;26.90;;;;;;5016284;28;20086;-66
2022/06/15 05:58:26;;;;;;;65.30;12.48;;;30.90;27.10;;;;;;5018002;28;20073;-68
2022/06/15 06:00:52;;;;;;;66.03;12.55;;;30.90;27.80;;;;;;4989084;28;20076;-67
2022/06/15 06:03:18;;;;;;;61.67;14.40;;;30.90;27.20;;;;;;5017837;28;20074;-67
2022/06/15 06:05:45;;;;;;;99.60;16.50;;;30.90;27.50;;;;;;4998986;28;20074;-68
2022/06/15 06:08:11;;;;;;;62.80;13.38;;;30.90;27.30;;;;;;5021420;28;20077;-67
2022/06/15 06:10:37;;;;;;;57.90;12.13;;;30.90;27.70;;;;;;5017057;28;20164;-67
2022/06/15 06:13:04;;;;;;;77.18;12.65;;;30.90;27.60;;;;;;5018639;28;20403;-67
2022/06/15 06:15:32;;;;;;;59.22;11.18;;;30.80;27.50;;;;;;5016850;28;20216;-67
2022/06/15 06:18:01;;;;;;;73.25;11.38;;;30.80;27.40;;;;;;4989642;28;20478;-68
2022/06/15 06:20:28;;;;;;;71.15;11.65;;;30.80;27.50;;;;;;5006115;28;20563;-67
2022/06/15 06:22:54;;;;;;;57.75;11.93;;;30.80;27.90;;;;;;4988467;28;20086;-67
2022/06/15 06:25:20;;;;;;;77.65;13.05;;;30.70;27.60;;;;;;4990234;28;20078;-66
2022/06/15 06:27:47;;;;;;;70.68;13.25;;;30.60;27.70;;;;;;4990121;28;20763;-67
2022/06/15 06:30:14;;;;;;;56.63;13.07;;;30.60;27.80;;;;;;4989557;28;20124;-67
2022/06/15 06:32:40;;;;;;;69.22;12.70;;;30.60;28.10;;;;;;4989840;28;20586;-67
2022/06/15 06:35:08;;;;;;;78.15;13.52;;;30.50;28.10;;;;;;4988565;28;20124;-67
2022/06/15 06:37:35;;;;;;;95.25;13.95;;;30.50;28.20;;;;;;5015479;28;20097;-67
2022/06/15 06:40:02;;;;;;;79.22;11.98;;;30.40;28.00;;;;;;5018496;28;20070;-67
2022/06/15 06:42:28;;;;;;;66.93;11.63;;;30.40;28.50;;;;;;4989485;28;20432;-67
2022/06/15 06:44:55;;;;;;;81.50;13.10;;;30.30;28.00;;;;;;4989576;28;20085;-67
2022/06/15 06:47:21;;;;;;;74.20;13.30;;;30.30;28.20;;;;;;4988394;28;20552;-67
2022/06/15 06:49:51;;;;;;;66.75;12.32;;;30.30;28.10;;;;;;4988315;28;20078;-67
2022/06/15 06:52:17;;;;;;;70.15;11.27;;;30.30;28.70;;;;;;5015497;28;20614;-66
2022/06/15 06:54:43;;;;;;;83.18;12.20;;;30.20;28.70;;;;;;4988767;28;20089;-68
2022/06/15 06:57:10;;;;;;;72.00;11.73;;;30.20;28.40;;;;;;4989230;28;20389;-66
2022/06/15 06:59:36;;;;;;;72.35;12.77;;;30.20;28.70;;;;;;5004294;28;20066;-67
2022/06/15 07:02:03;;;;;;;60.67;11.13;;;30.00;29.50;;;;;;4989928;28;20104;-65
2022/06/15 07:04:30;;;;;;;49.03;11.02;;;29.90;28.80;;;;;;4988505;28;20078;-65
2022/06/15 07:06:57;;;;;;;74.47;10.85;;;29.90;29.40;;;;;;4994015;28;20088;-65
2022/06/15 07:09:24;;;;;;;57.28;11.65;;;29.90;29.30;;;;;;5024105;28;20168;-66
2022/06/15 07:11:50;;;;;;;58.92;10.65;;;29.90;29.70;;;;;;5022405;28;20499;-66
2022/06/15 07:14:16;;;;;;;73.10;11.65;;;29.80;29.10;;;;;;5003263;28;20548;-66
2022/06/15 07:16:43;;;;;;;66.85;11.18;;;30.20;29.40;;;;;;4991936;28;20165;-66
2022/06/15 07:19:10;;;;;;;58.25;9.32;;;30.50;29.40;;;;;;5008083;28;20564;-65
2022/06/15 07:21:39;;;;;;;56.03;9.93;;;31.00;28.20;;;;;;5007565;28;20455;-65
2022/06/15 07:24:05;;;;;;;51.40;9.70;;;30.90;27.30;;;;;;4992914;28;20070;-65
2022/06/15 07:26:36;;;;;;;56.90;10.05;;;30.90;28.30;;;;;;4992179;28;20074;-66
2022/06/15 07:29:03;;;;;;;65.25;9.25;;;31.00;28.00;;;;;;5021896;28;20289;-66
2022/06/15 07:31:33;;;;;;;49.25;8.32;;;31.00;28.90;;;;;;5008797;28;20560;-66
2022/06/15 07:34:01;;;;;;;49.50;9.05;;;31.10;29.80;;;;;;5021233;28;20168;-65
2022/06/15 07:36:27;;;;;;;64.80;9.02;;;31.20;29.30;;;;;;5007445;28;20109;-65
2022/06/15 07:38:56;;;;;;;51.35;8.73;;;31.20;29.50;;;;;;5006713;28;20090;-65
2022/06/15 07:41:23;;;;;;;56.13;8.48;;;31.10;28.50;;;;;;5008008;28;20073;-66
2022/06/15 07:43:50;;;;;;;47.88;8.48;;;31.00;28.40;;;;;;5006302;28;20086;-66
2022/06/15 07:46:17;;;;;;;40.42;7.85;;;30.80;28.70;;;;;;4992400;28;20066;-66
2022/06/15 07:51:31;;;;;;;43.38;8.88;;;30.80;29.90;;;;;;5005394;28;20155;-66
2022/06/15 07:53:59;;;;;;;59.13;9.30;;;30.80;29.30;;;;;;5007418;28;20065;-65
2022/06/15 07:56:26;;;;;;;67.53;9.45;;;30.60;29.10;;;;;;5006003;28;20073;-65
2022/06/15 07:58:52;;;;;;;44.42;8.32;;;30.50;29.30;;;;;;5005323;28;20121;-65
2022/06/15 08:01:19;;;;;;;44.90;8.85;;;30.40;30.80;;;;;;5007483;28;20524;-65
2022/06/15 08:03:46;;;;;;;68.55;9.85;;;30.40;31.40;;;;;;5006557;28;20623;-65
2022/06/15 08:06:14;;;;;;;56.55;10.05;;;30.40;30.50;;;;;;5006806;28;20074;-66
2022/06/15 08:08:40;;;;;;;52.95;9.85;;;30.40;30.20;;;;;;5006960;28;20552;-65
2022/06/15 08:11:07;;;;;;;63.90;9.75;;;30.50;30.00;;;;;;5021442;28;20078;-66
2022/06/15 08:13:33;;;;;;;61.78;9.23;;;30.50;30.00;;;;;;5005710;28;20101;-65
2022/06/15 08:16:00;;;;;;;41.75;8.85;;;30.40;33.80;;;;;;5007788;28;20073;-65
2022/06/15 08:18:30;;;;;;;58.47;8.35;;;30.40;32.60;;;;;;5005543;28;20074;-65
2022/06/15 08:21:12;;;;;;;56.38;9.18;;;30.40;31.10;;;;;;5006866;28;20540;-65
2022/06/15 08:23:43;;;;;;;48.38;7.88;;;30.40;32.50;;;;;;4991626;28;20078;-65
2022/06/15 08:26:14;;;;;;;57.75;9.35;;;30.30;30.90;;;;;;5006482;28;20074;-65
2022/06/15 08:28:45;;;;;;;45.63;7.63;;;30.20;31.40;;;;;;5005088;28;20528;-68
2022/06/15 08:31:13;;;;;;;47.40;8.13;;;30.20;30.90;;;;;;5007015;28;20084;-68
2022/06/15 08:33:43;;;;;;;52.83;9.95;;;30.20;31.80;;;;;;5005649;28;20229;-64
2022/06/15 08:36:11;;;;;;;48.63;8.75;;;30.00;30.30;;;;;;5022360;28;20101;-64
2022/06/15 08:38:39;;;;;;;40.28;6.97;;;29.90;28.30;;;;;;5006186;28;20065;-66
2022/06/15 08:41:21;;;;;;;38.33;7.35;;;30.00;27.30;;;;;;4991735;28;20076;-67
2022/06/15 08:44:00;;;;;;;49.55;7.85;;;30.00;27.40;;;;;;4990905;28;20090;-66
2022/06/15 08:47:09;;;;;;;39.95;7.00;;;30.10;27.00;;;;;;5019298;28;20069;-66
2022/06/15 08:49:59;;;;;;;50.08;8.00;;;30.10;28.00;;;;;;4984751;28;20078;-66
2022/06/15 08:52:44;;;;;;;38.33;6.90;;;29.90;28.90;;;;;;4990775;28;20144;-66
2022/06/15 08:55:27;;;;;;;45.28;8.00;;;29.80;27.80;;;;;;4991044;28;20525;-65
2022/06/15 08:58:02;;;;;;;49.67;8.57;;;29.70;27.50;;;;;;4989818;28;20618;-66
2022/06/15 09:00:35;;;;;;;48.87;8.63;;;29.60;27.60;;;;;;5005524;28;20081;-66
2022/06/15 09:03:24;;;;;;;45.30;9.10;;;29.50;27.80;;;;;;5005931;28;20998;-66
2022/06/15 09:06:00;;;;;;;48.03;8.70;;;29.50;29.10;;;;;;4989624;28;20528;-66
2022/06/15 09:08:56;;;;;;;39.50;7.10;;;29.30;28.80;;;;;;4989936;28;20088;-65
2022/06/15 09:11:35;;;;;;;43.17;6.72;;;29.20;30.10;;;;;;5006575;28;20546;-65
2022/06/15 09:14:20;;;;;;;29.17;6.43;;;28.90;30.90;;;;;;5005228;28;20139;-65
2022/06/15 09:17:17;;;;;;;43.83;7.25;;;29.00;31.80;;;;;;5017610;28;20089;-65
2022/06/15 09:19:56;;;;;;;37.60;6.30;;;29.00;32.80;;;;;;4990954;28;20173;-66
2022/06/15 09:22:29;;;;;;;37.78;7.32;;;29.00;33.20;;;;;;5024955;28;20093;-65
2022/06/15 09:25:21;;;;;;;34.22;6.40;;;29.00;33.10;;;;;;4990002;28;20070;-65
2022/06/15 09:28:32;;;;;;;41.03;7.50;;;28.70;33.80;;;;;;5006034;28;20136;-65
2022/06/15 09:31:26;;;;;;;29.02;6.03;;;28.50;36.00;;;;;;5019556;28;20108;-66
2022/06/15 09:33:58;;;;;;;34.97;5.72;;;28.50;37.60;;;;;;5005145;28;20135;-67
2022/06/15 09:36:31;;;;;;;28.63;5.35;;;28.40;39.50;;;;;;5018202;28;20113;-66
2022/06/15 09:38:57;;;;;;;16.17;4.10;;;28.30;41.70;;;;;;4990647;28;20109;-65
2022/06/15 09:41:36;;;;;;;25.55;5.07;;;28.30;43.40;;;;;;4989410;28;20084;-65
2022/06/15 09:44:44;;;;;;;24.80;4.40;;;28.20;44.70;;;;;;4990187;28;20085;-65
2022/06/15 09:47:32;;;;;;;21.25;4.28;;;28.20;46.60;;;;;;5004198;28;20101;-66
2022/06/15 09:50:04;;;;;;;12.65;3.40;;;27.90;48.80;;;;;;4990128;28;20140;-66
2022/06/15 09:52:58;;;;;;;20.63;3.92;;;27.90;50.30;;;;;;4989894;28;20093;-66
2022/06/15 09:55:38;;;;;;;22.38;4.47;;;27.90;52.00;;;;;;5017828;28;20066;-65
2022/06/15 09:58:08;;;;;;;20.00;3.80;;;27.80;53.50;;;;;;5014676;28;20108;-66
2022/06/15 10:00:37;;;;;;;17.75;4.10;;;27.80;55.00;;;;;;4988500;28;20487;-65
2022/06/15 10:03:11;;;;;;;15.82;3.70;;;27.70;55.90;;;;;;5005115;28;20082;-65
2022/06/15 10:05:41;;;;;;;21.85;4.90;;;27.70;56.00;;;;;;5004778;28;20080;-65
2022/06/15 10:08:14;;;;;;;27.48;4.63;;;27.70;57.00;;;;;;5003940;28;20074;-65
2022/06/15 10:10:43;;;;;;;17.88;4.22;;;27.50;58.50;;;;;;4990492;28;20078;-66
2022/06/15 10:13:15;;;;;;;22.98;4.15;;;27.50;59.90;;;;;;5004675;28;20122;-65
2022/06/15 10:15:42;;;;;;;18.95;4.47;;;27.50;60.20;;;;;;5020253;28;20132;-64
2022/06/15 10:18:30;;;;;;;14.00;4.35;;;27.40;61.90;;;;;;4989635;28;20151;-65
2022/06/15 10:21:03;;;;;;;30.35;4.75;;;27.40;63.00;;;;;;5017421;28;20089;-65
2022/06/15 10:23:40;;;;;;;14.55;4.20;;;27.30;65.60;;;;;;4990023;28;20075;-65
2022/06/15 10:26:08;;;;;;;;;;;27.10;66.90;;;;;;4990238;28;20072;-65
2022/06/15 10:28:39;;;;;;;28.92;5.00;;;27.30;67.70;;;;;;5003963;28;20451;-66
2022/06/15 10:31:13;;;;;;;23.13;4.85;;;27.40;67.50;;;;;;5005484;28;20164;-67
2022/06/15 10:33:44;;;;;;;24.20;4.93;;;27.30;68.60;;;;;;5004988;28;20120;-67
2022/06/15 10:36:32;;;;;;;19.25;4.70;;;27.10;70.00;;;;;;4988723;28;21058;-66
2022/06/15 10:39:25;;;;;;;27.40;4.63;;;27.10;70.50;;;;;;5019357;28;20069;-66
2022/06/15 10:41:57;;;;;;;18.85;3.72;;;27.10;70.40;;;;;;5008881;28;20156;-65
2022/06/15 10:44:31;;;;;;;19.48;4.30;;;27.10;70.90;;;;;;4998549;28;20432;-66
2022/06/15 10:47:07;;;;;;;30.13;5.68;;;27.00;73.10;;;;;;5008883;28;20073;-66
2022/06/15 10:49:41;;;;;;;22.92;5.07;;;27.00;75.50;;;;;;5008619;28;20082;-67
2022/06/15 10:52:39;;;;;;;44.00;5.40;;;27.00;76.40;;;;;;4991996;28;20204;-66
2022/06/15 11:04:18;;;;;;;20.23;4.70;;;26.90;76.80;;;;;;4992712;28;20081;-66
2022/06/15 11:06:52;;;;;;;21.33;4.85;;;26.80;76.60;;;;;;4993081;28;20120;-66
2022/06/15 11:09:30;;;;;;;19.08;5.80;;;26.90;76.30;;;;;;5008288;28;20094;-66
2022/06/15 11:11:58;;;;;;;17.60;5.10;;;26.90;76.00;;;;;;5021510;28;20094;-67
2022/06/15 11:14:44;;;;;;;21.42;4.93;;;26.80;76.10;;;;;;5008056;28;20068;-68
2022/06/15 11:20:31;;;;;;;20.45;5.80;;;26.70;76.40;;;;;;4993200;28;20120;-67
2022/06/15 11:23:21;;;;;;;24.25;5.60;;;26.80;76.00;;;;;;4993601;28;20168;-67
2022/06/15 11:29:02;;;;;;;29.38;6.13;;;26.60;76.70;;;;;;4992621;28;20135;-66
2022/06/15 11:31:31;;;;;;;21.30;5.78;;;26.60;77.20;;;;;;5007935;28;20100;-66
2022/06/15 11:34:13;;;;;;;28.13;5.72;;;26.50;77.80;;;;;;5007837;28;20517;-66
2022/06/15 11:36:53;;;;;;;24.95;6.13;;;26.60;78.00;;;;;;5002220;28;20112;-66
2022/06/15 11:39:48;;;;;;;22.20;5.25;;;26.70;77.90;;;;;;5008876;28;20448;-68
2022/06/15 11:42:17;;;;;;;16.48;5.55;;;26.60;78.10;;;;;;5020299;28;20588;-66
2022/06/15 11:44:45;;;;;;;15.88;5.53;;;26.50;78.90;;;;;;5009807;28;20081;-66
2022/06/15 11:47:41;;;;;;;23.35;5.35;;;26.40;79.40;;;;;;5025168;28;20084;-66
2022/06/15 11:50:14;;;;;;;18.95;5.00;;;26.40;79.70;;;;;;4999952;28;20089;-67
2022/06/15 11:53:10;;;;;;;16.17;5.13;;;26.50;79.40;;;;;;5019203;28;20094;-66
2022/06/15 11:56:00;;;;;;;21.38;4.80;;;26.30;79.90;;;;;;5006064;28;20440;-65
2022/06/15 11:58:46;;;;;;;19.30;4.80;;;26.30;80.60;;;;;;5005822;28;20171;-66
2022/06/15 12:01:41;;;;;;;29.30;5.18;;;26.30;81.00;;;;;;4991560;28;20069;-66
2022/06/15 12:04:26;;;;;;;21.58;4.97;;;26.10;82.10;;;;;;4992446;28;20066;-67
2022/06/15 12:07:00;;;;;;;24.95;4.57;;;26.10;82.80;;;;;;5009610;28;20127;-66
2022/06/15 12:09:45;;;;;;;20.05;4.80;;;26.10;83.10;;;;;;5020472;28;20491;-66
2022/06/15 12:12:38;;;;;;;15.63;4.45;;;26.10;83.30;;;;;;5007134;28;20578;-66
2022/06/15 12:15:33;;;;;;;24.67;4.40;;;26.10;83.40;;;;;;5006356;28;20164;-66
2022/06/15 12:18:31;;;;;;;20.60;4.07;;;26.10;83.50;;;;;;5008317;28;20069;-68
2022/06/15 12:21:28;;;;;;;15.27;3.85;;;25.90;84.00;;;;;;5018635;28;20447;-67
2022/06/15 12:24:18;;;;;;;20.52;3.80;;;26.00;84.80;;;;;;5009129;28;20572;-66
2022/06/15 12:27:14;;;;;;;13.35;3.53;;;26.00;85.10;;;;;;5005605;28;20078;-67
2022/06/15 12:30:07;;;;;;;26.80;4.55;;;26.00;85.60;;;;;;4972398;28;20078;-67
2022/06/15 12:32:49;;;;;;;18.58;4.45;;;26.10;85.70;;;;;;4988432;28;20093;-67
2022/06/15 12:35:30;;;;;;;21.73;4.50;;;26.00;86.20;;;;;;4991319;28;20081;-67
2022/06/15 12:38:01;;;;;;;19.90;4.70;;;26.10;86.40;;;;;;5019281;28;20544;-67
2022/06/15 12:40:40;;;;;;;22.60;5.32;;;26.10;86.70;;;;;;5022233;28;20094;-66
2022/06/15 12:43:26;;;;;;;25.35;5.40;;;26.10;87.00;;;;;;5003506;28;20119;-67
2022/06/15 12:46:01;;;;;;;30.75;5.38;;;26.00;87.40;;;;;;5019142;28;20073;-67
2022/06/15 12:48:43;;;;;;;21.08;5.90;;;26.10;87.80;;;;;;5005625;28;20538;-67
2022/06/15 12:51:12;;;;;;;27.20;5.35;;;26.10;87.50;;;;;;5004268;28;20140;-65
2022/06/15 12:53:51;;;;;;;25.27;4.57;;;26.00;87.90;;;;;;5018219;28;20552;-67
2022/06/15 12:56:44;;;;;;;29.20;5.60;;;26.10;88.10;;;;;;4989799;28;20078;-65
2022/06/15 12:59:26;;;;;;;30.38;5.68;;;26.10;88.20;;;;;;4978272;28;20089;-65
2022/06/15 13:02:11;;;;;;;20.13;4.75;;;26.10;88.40;;;;;;5006979;28;20539;-65
2022/06/15 13:05:09;;;;;;;23.85;6.15;;;26.00;88.90;;;;;;4990870;28;20074;-66
2022/06/15 13:07:38;;;;;;;34.78;5.72;;;25.90;89.50;;;;;;5020859;28;20069;-65
2022/06/15 13:10:08;;;;;;;24.33;5.93;;;25.90;90.00;;;;;;5005280;28;20074;-66
2022/06/15 13:12:55;;;;;;;28.42;6.07;;;25.90;90.00;;;;;;5022174;28;20093;-66
2022/06/15 13:15:54;;;;;;;39.20;7.13;;;26.00;90.00;;;;;;4989252;28;20128;-66
2022/06/15 13:18:46;;;;;;;28.67;6.35;;;26.00;89.80;;;;;;5005302;28;20074;-66
2022/06/15 13:21:15;;;;;;;38.72;6.88;;;26.10;90.10;;;;;;5005639;28;20097;-66
2022/06/15 13:23:47;;;;;;;32.25;6.72;;;26.10;90.10;;;;;;5004662;28;20105;-66
2022/06/15 13:26:41;;;;;;;26.90;6.22;;;26.10;90.20;;;;;;5005571;28;20293;-66
2022/06/15 13:29:10;;;;;;;39.90;7.10;;;26.20;90.50;;;;;;4979736;28;20559;-66